sensor_id;sensor_type;location;lat;lon;timestamp;pressure;altitude;pressure_sealevel;temperature;humidity
47154;BME280;32907;41.412;2.164;2023-05-23T00:02:07;100357.19;;;23.21;47.14
47154;BME280;32907;41.412;2.164;2023-05-23T00:04:35;100348.50;;;23.19;47.24
47154;BME280;32907;41.412;2.164;2023-05-23T00:07:03;100349.28;;;23.19;47.04
47154;BME280;32907;41.412;2.164;2023-05-23T00:09:32;100335.59;;;23.10;46.91
47154;BME280;32907;41.412;2.164;2023-05-23T00:12:01;100344.75;;;23.14;47.29
47154;BME280;32907;41.412;2.164;2023-05-23T00:14:29;100327.16;;;22.98;47.19
47154;BME280;32907;41.412;2.164;2023-05-23T00:17:00;100330.06;;;23.02;47.08
47154;BME280;32907;41.412;2.164;2023-05-23T00:19:29;100351.06;;;23.24;46.85
47154;BME280;32907;41.412;2.164;2023-05-23T00:21:56;100324.13;;;23.08;46.98
47154;BME280;32907;41.412;2.164;2023-05-23T00:24:25;100344.78;;;23.23;47.32
47154;BME280;32907;41.412;2.164;2023-05-23T00:26:53;100315.78;;;23.05;47.30
47154;BME280;32907;41.412;2.164;2023-05-23T00:29:21;100339.16;;;23.20;47.31
47154;BME280;32907;41.412;2.164;2023-05-23T00:31:49;100328.47;;;23.09;47.11
47154;BME280;32907;41.412;2.164;2023-05-23T00:34:18;100326.25;;;23.11;47.46
47154;BME280;32907;41.412;2.164;2023-05-23T00:36:45;100291.91;;;22.88;47.72
47154;BME280;32907;41.412;2.164;2023-05-23T00:39:17;100307.81;;;22.86;47.55
47154;BME280;32907;41.412;2.164;2023-05-23T00:41:49;100302.88;;;22.97;47.28
47154;BME280;32907;41.412;2.164;2023-05-23T00:44:19;100343.81;;;23.19;47.48
47154;BME280;32907;41.412;2.164;2023-05-23T00:46:52;100308.03;;;22.98;47.11
47154;BME280;32907;41.412;2.164;2023-05-23T00:49:22;100328.47;;;23.09;47.46
47154;BME280;32907;41.412;2.164;2023-05-23T00:51:50;100291.44;;;22.86;46.70
47154;BME280;32907;41.412;2.164;2023-05-23T00:54:27;100329.00;;;23.11;47.23
47154;BME280;32907;41.412;2.164;2023-05-23T00:56:57;100342.38;;;23.22;47.25
47154;BME280;32907;41.412;2.164;2023-05-23T00:59:26;100307.25;;;23.06;46.89
47154;BME280;32907;41.412;2.164;2023-05-23T01:01:55;100333.34;;;23.21;47.13
47154;BME280;32907;41.412;2.164;2023-05-23T01:04:24;100331.91;;;23.24;46.97
47154;BME280;32907;41.412;2.164;2023-05-23T01:06:55;100321.91;;;23.10;47.13
47154;BME280;32907;41.412;2.164;2023-05-23T01:09:26;100315.41;;;22.98;47.20
47154;BME280;32907;41.412;2.164;2023-05-23T01:12:25;100330.59;;;23.12;46.83
47154;BME280;32907;41.412;2.164;2023-05-23T01:15:07;100340.56;;;23.17;46.61
47154;BME280;32907;41.412;2.164;2023-05-23T01:17:52;100341.38;;;23.17;47.08
47154;BME280;32907;41.412;2.164;2023-05-23T01:20:25;100331.88;;;23.15;47.08
47154;BME280;32907;41.412;2.164;2023-05-23T01:28:06;100319.31;;;23.05;46.76
47154;BME280;32907;41.412;2.164;2023-05-23T01:30:39;100264.81;;;22.78;47.24
47154;BME280;32907;41.412;2.164;2023-05-23T01:33:09;100318.34;;;23.10;46.97
47154;BME280;32907;41.412;2.164;2023-05-23T01:35:38;100286.13;;;22.89;47.10
47154;BME280;32907;41.412;2.164;2023-05-23T01:38:08;100292.06;;;22.92;46.96
47154;BME280;32907;41.412;2.164;2023-05-23T01:40:37;100277.75;;;22.86;46.96
47154;BME280;32907;41.412;2.164;2023-05-23T01:43:05;100273.66;;;22.83;46.88
47154;BME280;32907;41.412;2.164;2023-05-23T01:45:34;100322.88;;;23.14;47.16
47154;BME280;32907;41.412;2.164;2023-05-23T01:48:02;100275.94;;;22.81;47.25
47154;BME280;32907;41.412;2.164;2023-05-23T01:50:32;100319.19;;;23.10;47.23
47154;BME280;32907;41.412;2.164;2023-05-23T01:53:04;100276.56;;;22.78;47.18
47154;BME280;32907;41.412;2.164;2023-05-23T01:55:34;100320.59;;;23.08;47.13
47154;BME280;32907;41.412;2.164;2023-05-23T01:58:03;100318.66;;;23.08;47.64
47154;BME280;32907;41.412;2.164;2023-05-23T02:00:31;100299.66;;;22.95;47.66
47154;BME280;32907;41.412;2.164;2023-05-23T02:03:01;100300.94;;;22.97;47.50
47154;BME280;32907;41.412;2.164;2023-05-23T02:05:29;100321.25;;;23.05;47.42
47154;BME280;32907;41.412;2.164;2023-05-23T02:07:57;100316.72;;;23.00;47.60
47154;BME280;32907;41.412;2.164;2023-05-23T02:10:25;100290.88;;;22.84;47.64
47154;BME280;32907;41.412;2.164;2023-05-23T02:12:54;100329.13;;;23.06;47.81
47154;BME280;32907;41.412;2.164;2023-05-23T02:15:22;100273.28;;;22.68;47.67
47154;BME280;32907;41.412;2.164;2023-05-23T02:17:50;100333.78;;;23.06;47.66
47154;BME280;32907;41.412;2.164;2023-05-23T02:20:18;100313.13;;;22.91;47.66
47154;BME280;32907;41.412;2.164;2023-05-23T02:22:48;100295.38;;;22.80;47.79
47154;BME280;32907;41.412;2.164;2023-05-23T02:25:16;100319.44;;;23.00;47.48
47154;BME280;32907;41.412;2.164;2023-05-23T02:27:43;100319.28;;;22.97;47.47
47154;BME280;32907;41.412;2.164;2023-05-23T02:30:13;100298.28;;;22.83;47.56
47154;BME280;32907;41.412;2.164;2023-05-23T02:32:45;100297.38;;;22.88;47.69
47154;BME280;32907;41.412;2.164;2023-05-23T02:35:14;100289.25;;;22.74;47.50
47154;BME280;32907;41.412;2.164;2023-05-23T02:37:42;100294.88;;;22.78;47.21
47154;BME280;32907;41.412;2.164;2023-05-23T02:40:11;100329.78;;;23.03;47.49
47154;BME280;32907;41.412;2.164;2023-05-23T02:42:39;100311.41;;;22.95;47.74
47154;BME280;32907;41.412;2.164;2023-05-23T02:45:07;100332.19;;;23.05;47.63
47154;BME280;32907;41.412;2.164;2023-05-23T02:47:35;100314.97;;;23.04;47.53
47154;BME280;32907;41.412;2.164;2023-05-23T02:50:04;100293.03;;;22.87;47.49
47154;BME280;32907;41.412;2.164;2023-05-23T02:52:32;100309.16;;;22.97;47.61
47154;BME280;32907;41.412;2.164;2023-05-23T02:55:00;100261.22;;;22.69;47.45
47154;BME280;32907;41.412;2.164;2023-05-23T02:57:33;100225.16;;;22.49;47.52
47154;BME280;32907;41.412;2.164;2023-05-23T03:00:02;100299.16;;;22.93;47.57
47154;BME280;32907;41.412;2.164;2023-05-23T03:02:31;100312.56;;;23.03;47.38
47154;BME280;32907;41.412;2.164;2023-05-23T03:04:59;100309.50;;;23.04;47.22
47154;BME280;32907;41.412;2.164;2023-05-23T03:07:27;100231.59;;;22.53;47.50
47154;BME280;32907;41.412;2.164;2023-05-23T03:09:55;100296.91;;;22.95;47.44
47154;BME280;32907;41.412;2.164;2023-05-23T03:12:23;100231.66;;;22.62;47.50
47154;BME280;32907;41.412;2.164;2023-05-23T03:14:52;100262.97;;;22.87;47.72
47154;BME280;32907;41.412;2.164;2023-05-23T03:17:20;100224.75;;;22.65;47.61
47154;BME280;32907;41.412;2.164;2023-05-23T03:19:49;100284.22;;;22.99;47.54
47154;BME280;32907;41.412;2.164;2023-05-23T03:22:19;100262.44;;;22.85;47.49
47154;BME280;32907;41.412;2.164;2023-05-23T03:24:47;100273.72;;;22.92;47.46
47154;BME280;32907;41.412;2.164;2023-05-23T03:27:14;100294.38;;;23.07;47.55
47154;BME280;32907;41.412;2.164;2023-05-23T03:29:44;100297.91;;;23.07;47.65
47154;BME280;32907;41.412;2.164;2023-05-23T03:32:12;100297.91;;;23.07;47.43
47154;BME280;32907;41.412;2.164;2023-05-23T03:34:40;100239.41;;;22.77;47.45
47154;BME280;32907;41.412;2.164;2023-05-23T03:37:08;100273.75;;;23.01;47.60
47154;BME280;32907;41.412;2.164;2023-05-23T03:39:35;100290.84;;;23.06;47.23
47154;BME280;32907;41.412;2.164;2023-05-23T03:42:06;100245.06;;;22.81;47.38
47154;BME280;32907;41.412;2.164;2023-05-23T03:44:34;100281.50;;;23.07;47.50
47154;BME280;32907;41.412;2.164;2023-05-23T03:47:05;100249.38;;;22.82;47.64
47154;BME280;32907;41.412;2.164;2023-05-23T03:49:34;100271.81;;;23.01;47.58
47154;BME280;32907;41.412;2.164;2023-05-23T03:52:02;100216.69;;;22.68;47.54
47154;BME280;32907;41.412;2.164;2023-05-23T03:54:31;100261.41;;;23.03;47.50
47154;BME280;32907;41.412;2.164;2023-05-23T03:56:59;100253.00;;;23.00;47.62
47154;BME280;32907;41.412;2.164;2023-05-23T03:59:27;100259.47;;;23.04;47.56
47154;BME280;32907;41.412;2.164;2023-05-23T04:02:00;100271.03;;;23.09;47.75
47154;BME280;32907;41.412;2.164;2023-05-23T04:04:28;100254.63;;;23.01;47.95
47154;BME280;32907;41.412;2.164;2023-05-23T04:06:58;100273.78;;;23.09;47.24
47154;BME280;32907;41.412;2.164;2023-05-23T04:09:26;100245.25;;;22.93;47.68
47154;BME280;32907;41.412;2.164;2023-05-23T04:11:54;100249.06;;;22.83;47.60
47154;BME280;32907;41.412;2.164;2023-05-23T04:14:22;100255.34;;;22.84;47.46
47154;BME280;32907;41.412;2.164;2023-05-23T04:16:55;100280.69;;;22.98;47.74
47154;BME280;32907;41.412;2.164;2023-05-23T04:19:23;100272.16;;;23.00;47.67
47154;BME280;32907;41.412;2.164;2023-05-23T04:21:52;100272.47;;;22.98;47.90
47154;BME280;32907;41.412;2.164;2023-05-23T04:24:19;100274.28;;;23.03;48.00
47154;BME280;32907;41.412;2.164;2023-05-23T04:26:47;100265.56;;;23.01;47.45
47154;BME280;32907;41.412;2.164;2023-05-23T04:29:16;100283.91;;;23.09;47.68
47154;BME280;32907;41.412;2.164;2023-05-23T04:31:44;100268.16;;;23.06;47.78
47154;BME280;32907;41.412;2.164;2023-05-23T04:34:13;100236.38;;;22.79;47.86
47154;BME280;32907;41.412;2.164;2023-05-23T04:36:41;100230.56;;;22.80;47.63
47154;BME280;32907;41.412;2.164;2023-05-23T04:39:11;100251.84;;;22.92;48.08
47154;BME280;32907;41.412;2.164;2023-05-23T04:41:51;100230.56;;;22.80;48.36
47154;BME280;32907;41.412;2.164;2023-05-23T04:44:38;100262.00;;;23.00;48.18
47154;BME280;32907;41.412;2.164;2023-05-23T04:47:12;100243.19;;;22.90;47.87
47154;BME280;32907;41.412;2.164;2023-05-23T04:49:51;100215.31;;;22.79;48.11
47154;BME280;32907;41.412;2.164;2023-05-23T04:52:20;100235.09;;;22.85;47.88
47154;BME280;32907;41.412;2.164;2023-05-23T04:54:50;100213.03;;;22.73;47.93
47154;BME280;32907;41.412;2.164;2023-05-23T04:57:23;100205.94;;;22.63;47.84
47154;BME280;32907;41.412;2.164;2023-05-23T04:59:51;100242.38;;;22.89;48.10
47154;BME280;32907;41.412;2.164;2023-05-23T05:02:19;100230.75;;;22.84;47.80
47154;BME280;32907;41.412;2.164;2023-05-23T05:04:47;100258.16;;;23.01;47.96
47154;BME280;32907;41.412;2.164;2023-05-23T05:07:15;100251.72;;;22.97;48.09
47154;BME280;32907;41.412;2.164;2023-05-23T05:09:44;100210.78;;;22.75;48.06
47154;BME280;32907;41.412;2.164;2023-05-23T05:12:13;100241.44;;;22.94;48.29
47154;BME280;32907;41.412;2.164;2023-05-23T05:14:40;100227.41;;;22.87;48.59
47154;BME280;32907;41.412;2.164;2023-05-23T05:17:08;100247.06;;;23.06;48.36
47154;BME280;32907;41.412;2.164;2023-05-23T05:19:50;100240.13;;;23.00;48.25
47154;BME280;32907;41.412;2.164;2023-05-23T05:22:18;100233.84;;;22.91;48.42
47154;BME280;32907;41.412;2.164;2023-05-23T05:24:46;100250.91;;;22.97;47.99
47154;BME280;32907;41.412;2.164;2023-05-23T05:27:14;100238.34;;;22.87;49.19
47154;BME280;32907;41.412;2.164;2023-05-23T05:29:42;100262.31;;;22.90;48.93
47154;BME280;32907;41.412;2.164;2023-05-23T05:32:11;100238.25;;;22.70;48.16
47154;BME280;32907;41.412;2.164;2023-05-23T05:34:39;100279.72;;;22.94;47.61
47154;BME280;32907;41.412;2.164;2023-05-23T05:37:07;100231.47;;;22.58;47.18
47154;BME280;32907;41.412;2.164;2023-05-23T05:39:35;100277.53;;;22.82;47.05
47154;BME280;32907;41.412;2.164;2023-05-23T05:42:03;100242.38;;;22.58;46.84
47154;BME280;32907;41.412;2.164;2023-05-23T05:44:31;100255.94;;;22.64;47.14
47154;BME280;32907;41.412;2.164;2023-05-23T05:46:59;100290.78;;;22.89;47.33
47154;BME280;32907;41.412;2.164;2023-05-23T05:49:28;100292.72;;;22.88;46.90
47154;BME280;32907;41.412;2.164;2023-05-23T05:51:56;100290.88;;;22.84;46.87
47154;BME280;32907;41.412;2.164;2023-05-23T05:54:24;100285.72;;;22.82;47.12
47154;BME280;32907;41.412;2.164;2023-05-23T05:56:53;100285.06;;;22.77;46.83
47154;BME280;32907;41.412;2.164;2023-05-23T05:59:21;100292.81;;;22.83;46.94
47154;BME280;32907;41.412;2.164;2023-05-23T06:01:50;100253.81;;;22.60;47.22
47154;BME280;32907;41.412;2.164;2023-05-23T06:04:18;100300.91;;;22.88;46.84
47154;BME280;32907;41.412;2.164;2023-05-23T06:06:47;100273.00;;;22.78;46.93
47154;BME280;32907;41.412;2.164;2023-05-23T06:09:15;100267.03;;;22.67;46.89
47154;BME280;32907;41.412;2.164;2023-05-23T06:11:47;100306.44;;;22.75;47.03
47154;BME280;32907;41.412;2.164;2023-05-23T06:14:19;100203.03;;;22.28;47.05
47154;BME280;32907;41.412;2.164;2023-05-23T06:16:48;100222.75;;;22.48;47.28
47154;BME280;32907;41.412;2.164;2023-05-23T06:19:21;100300.16;;;23.05;47.36
47154;BME280;32907;41.412;2.164;2023-05-23T06:21:49;100179.75;;;22.31;47.43
47154;BME280;32907;41.412;2.164;2023-05-23T06:24:19;100062.44;;;21.55;46.92
47154;BME280;32907;41.412;2.164;2023-05-23T06:26:51;100072.75;;;21.58;47.00
47154;BME280;32907;41.412;2.164;2023-05-23T06:29:21;100034.91;;;21.34;47.53
47154;BME280;32907;41.412;2.164;2023-05-23T06:31:51;100304.16;;;22.99;47.11
47154;BME280;32907;41.412;2.164;2023-05-23T06:34:20;100193.72;;;22.29;47.60
47154;BME280;32907;41.412;2.164;2023-05-23T06:36:51;100141.50;;;22.00;47.58
47154;BME280;32907;41.412;2.164;2023-05-23T06:39:22;100141.19;;;22.01;47.62
47154;BME280;32907;41.412;2.164;2023-05-23T06:41:51;100208.56;;;22.46;47.63
47154;BME280;32907;41.412;2.164;2023-05-23T06:44:20;100141.47;;;21.91;47.32
47154;BME280;32907;41.412;2.164;2023-05-23T06:46:53;100321.72;;;23.07;47.38
47154;BME280;32907;41.412;2.164;2023-05-23T06:49:27;100308.84;;;23.07;47.52
47154;BME280;32907;41.412;2.164;2023-05-23T06:51:56;100068.97;;;21.45;47.25
47154;BME280;32907;41.412;2.164;2023-05-23T06:54:27;100314.19;;;23.12;47.51
47154;BME280;32907;41.412;2.164;2023-05-23T06:56:56;100115.94;;;21.96;47.09
47154;BME280;32907;41.412;2.164;2023-05-23T06:59:25;100231.50;;;22.67;46.89
47154;BME280;32907;41.412;2.164;2023-05-23T07:01:53;100194.75;;;22.42;46.63
47154;BME280;32907;41.412;2.164;2023-05-23T07:04:22;100039.13;;;21.49;46.99
47154;BME280;32907;41.412;2.164;2023-05-23T07:06:52;100311.47;;;23.21;47.61
47154;BME280;32907;41.412;2.164;2023-05-23T07:09:21;100186.06;;;22.40;47.86
47154;BME280;32907;41.412;2.164;2023-05-23T07:11:58;100304.06;;;23.22;48.12
47154;BME280;32907;41.412;2.164;2023-05-23T07:14:26;100262.19;;;22.95;48.14
47154;BME280;32907;41.412;2.164;2023-05-23T07:16:53;100302.00;;;23.19;48.25
47154;BME280;32907;41.412;2.164;2023-05-23T07:19:22;100217.47;;;22.60;48.04
47154;BME280;32907;41.412;2.164;2023-05-23T07:21:52;100222.47;;;22.58;48.41
47154;BME280;32907;41.412;2.164;2023-05-23T07:24:23;100105.94;;;21.83;47.93
47154;BME280;32907;41.412;2.164;2023-05-23T07:26:58;100145.63;;;22.20;47.99
47154;BME280;32907;41.412;2.164;2023-05-23T07:29:27;100212.28;;;22.50;48.55
47154;BME280;32907;41.412;2.164;2023-05-23T07:32:00;100073.72;;;21.62;48.32
47154;BME280;32907;41.412;2.164;2023-05-23T07:34:29;100094.78;;;21.70;48.83
47154;BME280;32907;41.412;2.164;2023-05-23T07:37:01;100311.84;;;23.37;48.99
47154;BME280;32907;41.412;2.164;2023-05-23T07:39:43;100074.88;;;21.70;49.32
47154;BME280;32907;41.412;2.164;2023-05-23T07:42:15;100307.66;;;23.39;49.78
47154;BME280;32907;41.412;2.164;2023-05-23T07:44:46;100082.53;;;21.90;49.62
47154;BME280;32907;41.412;2.164;2023-05-23T07:47:15;100301.38;;;23.39;50.11
47154;BME280;32907;41.412;2.164;2023-05-23T07:49:46;100185.81;;;22.68;50.12
47154;BME280;32907;41.412;2.164;2023-05-23T07:52:21;100131.50;;;22.18;50.45
47154;BME280;32907;41.412;2.164;2023-05-23T07:54:50;100010.88;;;21.45;50.61
47154;BME280;32907;41.412;2.164;2023-05-23T07:57:22;100283.47;;;23.33;50.69
47154;BME280;32907;41.412;2.164;2023-05-23T07:59:54;100160.69;;;22.40;50.89
47154;BME280;32907;41.412;2.164;2023-05-23T08:02:26;100213.19;;;22.76;50.82
47154;BME280;32907;41.412;2.164;2023-05-23T08:04:56;100270.44;;;23.21;51.20
47154;BME280;32907;41.412;2.164;2023-05-23T08:07:26;100056.50;;;21.84;51.02
47154;BME280;32907;41.412;2.164;2023-05-23T08:10:19;100276.88;;;23.25;51.03
47154;BME280;32907;41.412;2.164;2023-05-23T08:13:08;100183.75;;;22.65;51.10
47154;BME280;32907;41.412;2.164;2023-05-23T08:16:07;100024.59;;;21.62;51.04
47154;BME280;32907;41.412;2.164;2023-05-23T08:18:37;100291.34;;;23.26;51.19
47154;BME280;32907;41.412;2.164;2023-05-23T08:21:06;100165.31;;;22.30;51.28
47154;BME280;32907;41.412;2.164;2023-05-23T08:23:35;100134.59;;;22.25;51.10
47154;BME280;32907;41.412;2.164;2023-05-23T08:26:04;100093.75;;;21.89;51.36
47154;BME280;32907;41.412;2.164;2023-05-23T08:28:40;100297.97;;;23.33;51.39
47154;BME280;32907;41.412;2.164;2023-05-23T08:31:09;100159.22;;;22.42;51.05
47154;BME280;32907;41.412;2.164;2023-05-23T08:33:43;100153.13;;;22.45;51.06
47154;BME280;32907;41.412;2.164;2023-05-23T08:36:13;100179.81;;;22.40;51.07
47154;BME280;32907;41.412;2.164;2023-05-23T08:38:44;100160.50;;;22.45;51.16
47154;BME280;32907;41.412;2.164;2023-05-23T08:41:25;100148.59;;;22.32;51.44
47154;BME280;32907;41.412;2.164;2023-05-23T08:44:03;100314.72;;;23.40;51.14
47154;BME280;32907;41.412;2.164;2023-05-23T08:46:44;100221.56;;;22.80;51.48
47154;BME280;32907;41.412;2.164;2023-05-23T08:49:23;100088.47;;;21.92;51.14
47154;BME280;32907;41.412;2.164;2023-05-23T08:51:58;100150.50;;;22.23;50.88
47154;BME280;32907;41.412;2.164;2023-05-23T08:54:33;100310.56;;;23.43;50.96
47154;BME280;32907;41.412;2.164;2023-05-23T08:57:02;100179.50;;;22.50;51.43
47154;BME280;32907;41.412;2.164;2023-05-23T08:59:40;100212.63;;;22.88;51.37
47154;BME280;32907;41.412;2.164;2023-05-23T09:02:13;100114.13;;;22.14;50.77
47154;BME280;32907;41.412;2.164;2023-05-23T09:04:44;100297.50;;;23.31;51.08
47154;BME280;32907;41.412;2.164;2023-05-23T09:07:17;100304.13;;;23.48;51.26
47154;BME280;32907;41.412;2.164;2023-05-23T09:09:48;100301.56;;;23.42;51.11
47154;BME280;32907;41.412;2.164;2023-05-23T09:12:18;100123.66;;;22.25;51.02
47154;BME280;32907;41.412;2.164;2023-05-23T09:14:50;100080.28;;;21.92;51.08
47154;BME280;32907;41.412;2.164;2023-05-23T09:17:21;100239.78;;;22.93;50.88
47154;BME280;32907;41.412;2.164;2023-05-23T09:19:52;100064.53;;;21.89;50.73
47154;BME280;32907;41.412;2.164;2023-05-23T09:22:37;100108.06;;;21.94;50.97
47154;BME280;32907;41.412;2.164;2023-05-23T09:25:14;100281.97;;;23.09;50.68
47154;BME280;32907;41.412;2.164;2023-05-23T09:27:45;100191.91;;;22.56;51.13
47154;BME280;32907;41.412;2.164;2023-05-23T09:30:16;100181.78;;;22.56;50.89
47154;BME280;32907;41.412;2.164;2023-05-23T09:33:00;100184.66;;;22.51;50.92
47154;BME280;32907;41.412;2.164;2023-05-23T09:35:34;100108.56;;;21.96;50.92
47154;BME280;32907;41.412;2.164;2023-05-23T09:38:07;100185.78;;;22.50;50.70
47154;BME280;32907;41.412;2.164;2023-05-23T09:40:43;100048.84;;;21.64;50.72
47154;BME280;32907;41.412;2.164;2023-05-23T09:43:18;100232.72;;;22.92;50.92
47154;BME280;32907;41.412;2.164;2023-05-23T09:45:54;100198.03;;;22.61;50.75
47154;BME280;32907;41.412;2.164;2023-05-23T09:48:29;100273.50;;;23.20;50.48
47154;BME280;32907;41.412;2.164;2023-05-23T09:51:11;100109.88;;;21.99;50.67
47154;BME280;32907;41.412;2.164;2023-05-23T09:53:40;100071.94;;;21.97;50.80
47154;BME280;32907;41.412;2.164;2023-05-23T09:56:09;100183.41;;;22.66;50.47
47154;BME280;32907;41.412;2.164;2023-05-23T09:58:48;100096.44;;;22.11;50.40
47154;BME280;32907;41.412;2.164;2023-05-23T10:01:18;100207.16;;;22.97;50.69
47154;BME280;32907;41.412;2.164;2023-05-23T10:03:53;100177.84;;;22.80;50.52
47154;BME280;32907;41.412;2.164;2023-05-23T10:06:31;100107.28;;;22.25;50.00
47154;BME280;32907;41.412;2.164;2023-05-23T10:09:06;100232.31;;;23.25;50.10
47154;BME280;32907;41.412;2.164;2023-05-23T10:12:20;100076.44;;;22.24;50.62
47154;BME280;32907;41.412;2.164;2023-05-23T10:15:07;100302.25;;;23.83;50.18
47154;BME280;32907;41.412;2.164;2023-05-23T10:18:00;100310.94;;;23.85;50.26
47154;BME280;32907;41.412;2.164;2023-05-23T10:20:31;100289.38;;;23.75;50.15
47154;BME280;32907;41.412;2.164;2023-05-23T10:23:00;100300.00;;;23.85;50.25
47154;BME280;32907;41.412;2.164;2023-05-23T10:25:28;100310.78;;;23.90;49.93
47154;BME280;32907;41.412;2.164;2023-05-23T10:27:57;100305.28;;;23.90;50.20
47154;BME280;32907;41.412;2.164;2023-05-23T10:30:28;100304.19;;;23.91;50.04
47154;BME280;32907;41.412;2.164;2023-05-23T10:32:57;100303.53;;;23.94;50.20
47154;BME280;32907;41.412;2.164;2023-05-23T10:41:15;100299.66;;;23.95;49.86
47154;BME280;32907;41.412;2.164;2023-05-23T10:43:56;100283.25;;;23.86;49.95
47154;BME280;32907;41.412;2.164;2023-05-23T10:46:50;100263.59;;;23.76;50.10
47154;BME280;32907;41.412;2.164;2023-05-23T10:49:40;100295.66;;;23.92;49.89
47154;BME280;32907;41.412;2.164;2023-05-23T10:52:10;100278.75;;;23.90;50.29
47154;BME280;32907;41.412;2.164;2023-05-23T10:57:18;100297.25;;;23.93;50.10
47154;BME280;32907;41.412;2.164;2023-05-23T10:59:50;100281.63;;;23.94;50.03
47154;BME280;32907;41.412;2.164;2023-05-23T11:02:24;100262.78;;;23.84;49.84
47154;BME280;32907;41.412;2.164;2023-05-23T11:08:10;100283.88;;;24.09;51.02
47154;BME280;32907;41.412;2.164;2023-05-23T11:10:53;100290.63;;;24.12;51.40
47154;BME280;32907;41.412;2.164;2023-05-23T11:13:21;100263.91;;;24.00;50.83
47154;BME280;32907;41.412;2.164;2023-05-23T11:15:50;100286.25;;;24.19;50.96
47154;BME280;32907;41.412;2.164;2023-05-23T11:18:20;100278.38;;;24.09;50.65
47154;BME280;32907;41.412;2.164;2023-05-23T11:20:52;100152.97;;;23.25;50.45
47154;BME280;32907;41.412;2.164;2023-05-23T11:23:38;100296.56;;;24.14;52.35
47154;BME280;32907;41.412;2.164;2023-05-23T11:26:29;100072.16;;;22.67;50.87
47154;BME280;32907;41.412;2.164;2023-05-23T11:28:58;100174.88;;;23.51;50.79
47154;BME280;32907;41.412;2.164;2023-05-23T11:31:38;100202.41;;;23.71;50.21
47154;BME280;32907;41.412;2.164;2023-05-23T11:34:10;100280.63;;;24.24;50.56
47154;BME280;32907;41.412;2.164;2023-05-23T11:36:40;100092.47;;;22.92;50.14
47154;BME280;32907;41.412;2.164;2023-05-23T11:39:12;100289.31;;;24.26;50.23
47154;BME280;32907;41.412;2.164;2023-05-23T11:41:41;100061.13;;;22.89;50.21
47154;BME280;32907;41.412;2.164;2023-05-23T11:44:14;100120.47;;;23.23;50.11
47154;BME280;32907;41.412;2.164;2023-05-23T11:46:58;100157.34;;;23.43;50.43
47154;BME280;32907;41.412;2.164;2023-05-23T11:49:30;100072.19;;;22.84;50.25
47154;BME280;32907;41.412;2.164;2023-05-23T11:52:02;100084.59;;;22.90;50.30
47154;BME280;32907;41.412;2.164;2023-05-23T11:54:34;100213.00;;;23.82;50.26
47154;BME280;32907;41.412;2.164;2023-05-23T11:57:08;100005.78;;;22.57;50.06
47154;BME280;32907;41.412;2.164;2023-05-23T11:59:47;100294.94;;;24.30;50.07
47154;BME280;32907;41.412;2.164;2023-05-23T12:02:15;100210.59;;;23.80;50.27
47154;BME280;32907;41.412;2.164;2023-05-23T12:04:50;100292.88;;;24.36;49.90
47154;BME280;32907;41.412;2.164;2023-05-23T12:07:20;100199.00;;;23.83;49.74
47154;BME280;32907;41.412;2.164;2023-05-23T12:09:50;100077.06;;;22.96;49.90
47154;BME280;32907;41.412;2.164;2023-05-23T12:12:25;100274.00;;;24.25;49.93
47154;BME280;32907;41.412;2.164;2023-05-23T12:14:57;100272.06;;;24.26;49.95
47154;BME280;32907;41.412;2.164;2023-05-23T12:17:28;100311.72;;;24.37;49.97
47154;BME280;32907;41.412;2.164;2023-05-23T12:20:00;100177.59;;;23.59;50.00
47154;BME280;32907;41.412;2.164;2023-05-23T12:22:29;100238.28;;;23.96;49.95
47154;BME280;32907;41.412;2.164;2023-05-23T12:24:58;100154.25;;;23.53;49.95
47154;BME280;32907;41.412;2.164;2023-05-23T12:27:28;100143.81;;;23.38;49.98
47154;BME280;32907;41.412;2.164;2023-05-23T12:30:08;100143.00;;;23.46;49.50
47154;BME280;32907;41.412;2.164;2023-05-23T12:32:42;100191.63;;;23.75;50.09
47154;BME280;32907;41.412;2.164;2023-05-23T12:35:14;100164.41;;;23.61;49.68
47154;BME280;32907;41.412;2.164;2023-05-23T12:37:49;100278.81;;;24.28;50.09
47154;BME280;32907;41.412;2.164;2023-05-23T12:40:22;99997.72;;;22.52;49.80
47154;BME280;32907;41.412;2.164;2023-05-23T12:42:53;100163.44;;;23.40;49.67
47154;BME280;32907;41.412;2.164;2023-05-23T12:45:35;100289.44;;;24.30;49.43
47154;BME280;32907;41.412;2.164;2023-05-23T12:48:05;100186.13;;;23.49;49.74
47154;BME280;32907;41.412;2.164;2023-05-23T12:50:34;100153.63;;;23.30;49.80
47154;BME280;32907;41.412;2.164;2023-05-23T12:53:06;100071.06;;;22.85;49.71
47154;BME280;32907;41.412;2.164;2023-05-23T12:55:40;100250.69;;;24.02;49.71
47154;BME280;32907;41.412;2.164;2023-05-23T12:58:09;100148.28;;;23.34;50.01
47154;BME280;32907;41.412;2.164;2023-05-23T13:00:41;100127.22;;;23.00;49.76
47154;BME280;32907;41.412;2.164;2023-05-23T13:03:10;100041.16;;;22.63;49.73
47154;BME280;32907;41.412;2.164;2023-05-23T13:05:39;100057.88;;;22.78;49.90
47154;BME280;32907;41.412;2.164;2023-05-23T13:08:11;100152.00;;;23.21;49.81
47154;BME280;32907;41.412;2.164;2023-05-23T13:10:41;100107.13;;;22.96;49.49
47154;BME280;32907;41.412;2.164;2023-05-23T13:13:10;100045.31;;;22.77;49.66
47154;BME280;32907;41.412;2.164;2023-05-23T13:15:39;100081.88;;;22.90;49.80
47154;BME280;32907;41.412;2.164;2023-05-23T13:18:10;100288.97;;;24.28;49.71
47154;BME280;32907;41.412;2.164;2023-05-23T13:20:42;100080.25;;;22.98;49.51
47154;BME280;32907;41.412;2.164;2023-05-23T13:23:12;100256.97;;;24.03;49.77
47154;BME280;32907;41.412;2.164;2023-05-23T13:25:41;100156.66;;;23.46;49.77
47154;BME280;32907;41.412;2.164;2023-05-23T13:28:11;100063.66;;;22.77;49.92
47154;BME280;32907;41.412;2.164;2023-05-23T13:30:43;100180.50;;;23.63;49.72